Time;durP1;ratioP1;P1;durP2;ratioP2;P2;SDS_P1;SDS_P2;PMS_P1;PMS_P2;Temp;Humidity;BMP_temperature;BMP_pressure;BME280_temperature;BME280_humidity;BME280_pressure;Samples;Min_cycle;Max_cycle;Signal;HPM_P1;HPM_P2
2022/10/11 00:00:30;;;;;;;9.32;5.47;;;;;;;;;;5031396;28;20029;-40
2022/10/11 00:02:56;;;;;;;11.55;4.70;;;;;;;;;;5031184;28;20464;-41
2022/10/11 00:05:22;;;;;;;9.43;5.50;;;;;;;;;;5031147;28;20040;-41
2022/10/11 00:07:47;;;;;;;10.75;5.03;;;;;;;;;;5031203;28;20029;-40
2022/10/11 00:10:13;;;;;;;8.38;5.20;;;;;;;;;;5031328;28;20492;-41
2022/10/11 00:12:38;;;;;;;8.77;5.32;;;;;;;;;;5031156;28;20473;-41
2022/10/11 00:15:04;;;;;;;6.82;4.50;;;;;;;;;;5031083;28;20423;-41
2022/10/11 00:17:30;;;;;;;8.13;5.00;;;;;;;;;;5031174;28;20065;-40
2022/10/11 00:19:55;;;;;;;8.60;5.78;;;;;;;;;;5030980;28;20025;-40
2022/10/11 00:22:21;;;;;;;7.80;5.03;;;;;;;;;;5030958;28;20076;-40
2022/10/11 00:24:46;;;;;;;8.43;4.68;;;;;;;;;;5031233;28;20032;-40
2022/10/11 00:27:11;;;;;;;9.15;5.22;;;;;;;;;;5031159;28;20021;-40
2022/10/11 00:29:37;;;;;;;11.65;5.93;;;;;;;;;;5030871;28;20427;-40
2022/10/11 00:32:03;;;;;;;8.13;4.78;;;;;;;;;;5031076;28;20018;-40
2022/10/11 00:34:28;;;;;;;7.82;4.60;;;;;;;;;;5030913;28;20415;-41
2022/10/11 00:36:53;;;;;;;12.95;5.22;;;;;;;;;;5030662;28;20096;-40
2022/10/11 00:39:19;;;;;;;7.93;5.65;;;;;;;;;;5030892;28;20040;-41
2022/10/11 00:41:46;;;;;;;8.63;4.85;;;;;;;;;;5031161;28;20029;-40
2022/10/11 00:44:14;;;;;;;8.90;4.80;;;;;;;;;;5030790;28;20036;-40
2022/10/11 00:46:41;;;;;;;10.43;5.85;;;;;;;;;;5031132;28;20044;-40
2022/10/11 00:49:39;;;;;;;8.27;5.78;;;;;;;;;;5030670;28;20144;-41
2022/10/11 00:52:04;;;;;;;10.48;5.20;;;;;;;;;;4976075;28;20091;-41
2022/10/11 00:54:32;;;;;;;10.70;6.05;;;;;;;;;;5031051;28;20021;-40
2022/10/11 00:57:00;;;;;;;10.18;5.53;;;;;;;;;;5034205;28;20099;-40
2022/10/11 00:59:28;;;;;;;10.38;5.60;;;;;;;;;;5034599;28;20018;-40
2022/10/11 01:01:54;;;;;;;9.13;5.13;;;;;;;;;;5034306;28;20031;-40
2022/10/11 01:04:20;;;;;;;9.68;4.63;;;;;;;;;;5034182;28;20093;-40
2022/10/11 01:06:46;;;;;;;8.48;5.45;;;;;;;;;;5033023;28;20041;-40
2022/10/11 01:09:12;;;;;;;10.23;4.95;;;;;;;;;;5034057;28;20021;-40
2022/10/11 01:11:39;;;;;;;7.78;4.97;;;;;;;;;;5034121;28;20033;-40
2022/10/11 01:14:23;;;;;;;10.25;5.95;;;;;;;;;;5034102;28;20022;-40
2022/10/11 01:17:02;;;;;;;7.65;5.13;;;;;;;;;;5034032;28;20038;-40
2022/10/11 01:19:46;;;;;;;10.98;5.38;;;;;;;;;;5033883;28;20030;-42
2022/10/11 01:22:23;;;;;;;11.55;5.72;;;;;;;;;;5033962;28;20052;-40
2022/10/11 01:24:48;;;;;;;9.95;5.53;;;;;;;;;;5033736;28;20068;-40
2022/10/11 01:27:14;;;;;;;8.18;4.40;;;;;;;;;;5034099;28;20041;-40
2022/10/11 01:29:57;;;;;;;10.18;5.30;;;;;;;;;;5033760;28;20046;-40
2022/10/11 01:32:23;;;;;;;8.90;5.38;;;;;;;;;;5033783;28;20045;-40
2022/10/11 01:35:00;;;;;;;11.38;5.90;;;;;;;;;;5033930;28;20429;-40
2022/10/11 01:37:31;;;;;;;9.48;5.53;;;;;;;;;;5033597;28;20115;-40
2022/10/11 01:40:09;;;;;;;9.13;5.38;;;;;;;;;;5033679;28;20081;-41
2022/10/11 01:42:36;;;;;;;10.40;6.10;;;;;;;;;;5034032;28;20033;-40
2022/10/11 01:45:02;;;;;;;7.93;4.57;;;;;;;;;;5033477;28;20494;-40
2022/10/11 01:47:27;;;;;;;9.75;5.80;;;;;;;;;;5033449;28;20120;-40
2022/10/11 01:49:56;;;;;;;8.82;4.65;;;;;;;;;;5033293;28;20020;-40
2022/10/11 01:52:23;;;;;;;9.52;5.97;;;;;;;;;;5033419;28;20039;-40
2022/10/11 01:54:55;;;;;;;8.70;4.93;;;;;;;;;;5033315;28;20013;-40
2022/10/11 01:57:37;;;;;;;10.80;6.18;;;;;;;;;;5033497;28;20041;-41
2022/10/11 02:00:12;;;;;;;8.63;5.30;;;;;;;;;;5033477;28;20033;-40
2022/10/11 02:02:47;;;;;;;10.05;5.15;;;;;;;;;;5033181;28;20041;-40
2022/10/11 02:05:29;;;;;;;9.93;5.57;;;;;;;;;;5033058;28;20025;-41
2022/10/11 02:07:59;;;;;;;9.90;5.68;;;;;;;;;;5032410;28;20064;-40
2022/10/11 02:10:34;;;;;;;10.57;5.25;;;;;;;;;;5032996;28;20116;-41
2022/10/11 02:13:05;;;;;;;10.70;4.65;;;;;;;;;;5032997;28;20116;-40
2022/10/11 02:15:31;;;;;;;8.88;5.80;;;;;;;;;;5032862;28;20044;-40
2022/10/11 02:17:59;;;;;;;8.77;5.30;;;;;;;;;;5032690;28;20029;-41
2022/10/11 02:20:27;;;;;;;14.43;5.03;;;;;;;;;;5033077;28;20037;-40
2022/10/11 02:22:58;;;;;;;9.05;5.15;;;;;;;;;;5015088;28;20036;-40
2022/10/11 02:25:25;;;;;;;11.93;5.30;;;;;;;;;;5033078;28;20076;-40
2022/10/11 02:27:52;;;;;;;9.80;5.72;;;;;;;;;;5032732;28;20024;-40
2022/10/11 02:30:18;;;;;;;11.15;6.13;;;;;;;;;;5032868;28;20030;-40
2022/10/11 02:32:45;;;;;;;9.32;5.15;;;;;;;;;;5032904;28;20068;-40
2022/10/11 02:35:11;;;;;;;11.88;5.53;;;;;;;;;;5032494;28;20040;-40
2022/10/11 02:37:46;;;;;;;12.95;5.40;;;;;;;;;;5032276;28;20053;-40
2022/10/11 02:40:11;;;;;;;8.73;5.03;;;;;;;;;;5032423;28;20384;-40
2022/10/11 02:42:41;;;;;;;9.43;5.97;;;;;;;;;;5032713;28;20029;-40
2022/10/11 02:45:16;;;;;;;7.43;4.22;;;;;;;;;;5032201;28;20040;-40
2022/10/11 02:47:41;;;;;;;7.28;4.80;;;;;;;;;;5032263;28;20040;-40
2022/10/11 02:50:09;;;;;;;9.55;5.30;;;;;;;;;;5032137;28;20017;-40
2022/10/11 02:52:34;;;;;;;8.57;4.80;;;;;;;;;;5032327;28;20075;-41
2022/10/11 02:55:00;;;;;;;12.23;5.93;;;;;;;;;;5032398;28;20482;-40
2022/10/11 02:57:25;;;;;;;11.32;5.60;;;;;;;;;;5032390;28;20610;-40
2022/10/11 02:59:51;;;;;;;10.02;5.72;;;;;;;;;;5032083;28;20080;-40
2022/10/11 03:02:16;;;;;;;10.43;5.93;;;;;;;;;;5032074;28;20104;-40
2022/10/11 03:04:41;;;;;;;11.77;5.43;;;;;;;;;;5032020;28;20017;-40
2022/10/11 03:07:07;;;;;;;7.28;5.32;;;;;;;;;;5031976;28;20126;-40
2022/10/11 03:09:32;;;;;;;11.27;6.47;;;;;;;;;;5031918;28;20021;-40
2022/10/11 03:11:57;;;;;;;7.80;5.15;;;;;;;;;;5031774;28;20388;-41
2022/10/11 03:14:23;;;;;;;9.40;5.35;;;;;;;;;;5032148;28;20439;-40
2022/10/11 03:16:48;;;;;;;9.13;5.93;;;;;;;;;;5031789;28;20033;-40
2022/10/11 03:19:14;;;;;;;14.38;6.25;;;;;;;;;;5029435;28;20023;-40
2022/10/11 03:21:39;;;;;;;8.95;5.82;;;;;;;;;;5032012;28;20045;-40
2022/10/11 03:24:05;;;;;;;12.63;6.47;;;;;;;;;;5031969;28;20467;-40
2022/10/11 03:26:30;;;;;;;9.35;5.00;;;;;;;;;;5031630;28;20026;-40
2022/10/11 03:28:55;;;;;;;8.25;5.97;;;;;;;;;;5031607;28;20399;-40
2022/10/11 03:31:22;;;;;;;7.25;4.55;;;;;;;;;;5031881;28;20095;-40
2022/10/11 03:33:47;;;;;;;7.80;4.70;;;;;;;;;;5031479;28;20411;-40
2022/10/11 03:36:13;;;;;;;10.35;5.70;;;;;;;;;;5031523;28;20036;-40
2022/10/11 03:38:38;;;;;;;8.38;6.03;;;;;;;;;;5031452;28;20040;-40
2022/10/11 03:41:04;;;;;;;10.02;5.32;;;;;;;;;;5031583;28;20174;-39
2022/10/11 03:43:29;;;;;;;10.95;5.53;;;;;;;;;;5031692;28;20036;-40
2022/10/11 03:45:55;;;;;;;10.95;4.63;;;;;;;;;;5031560;28;20500;-40
2022/10/11 03:48:21;;;;;;;10.18;5.40;;;;;;;;;;5031368;28;20037;-40
2022/10/11 03:50:47;;;;;;;26.50;7.35;;;;;;;;;;5031617;28;20041;-40
2022/10/11 03:53:12;;;;;;;9.55;5.07;;;;;;;;;;5031272;28;20033;-40
2022/10/11 03:55:39;;;;;;;11.07;6.32;;;;;;;;;;5031335;28;20033;-41
2022/10/11 03:58:04;;;;;;;11.52;5.60;;;;;;;;;;5013430;28;20033;-40
2022/10/11 04:00:29;;;;;;;7.78;5.28;;;;;;;;;;5031475;28;20522;-40
2022/10/11 04:02:55;;;;;;;11.60;5.28;;;;;;;;;;5031354;28;20021;-40
2022/10/11 04:05:20;;;;;;;8.70;4.80;;;;;;;;;;5031224;28;20028;-40
2022/10/11 04:07:46;;;;;;;8.65;4.57;;;;;;;;;;5031178;28;20048;-40
2022/10/11 04:10:11;;;;;;;9.15;5.40;;;;;;;;;;5031019;28;20033;-40
2022/10/11 04:12:37;;;;;;;10.63;5.78;;;;;;;;;;5031409;28;20021;-41
2022/10/11 04:15:03;;;;;;;10.45;5.28;;;;;;;;;;5031331;28;20380;-41
2022/10/11 04:17:29;;;;;;;9.05;4.75;;;;;;;;;;5030905;28;20025;-41
2022/10/11 04:19:54;;;;;;;8.70;4.65;;;;;;;;;;5030962;28;20033;-40
2022/10/11 04:22:20;;;;;;;15.57;6.07;;;;;;;;;;5031087;28;20026;-40
2022/10/11 04:24:45;;;;;;;8.02;5.22;;;;;;;;;;5031156;28;20037;-40
2022/10/11 04:27:10;;;;;;;10.23;5.38;;;;;;;;;;5030952;28;20121;-41
2022/10/11 04:29:36;;;;;;;9.35;4.55;;;;;;;;;;5031349;28;20068;-40
2022/10/11 04:32:01;;;;;;;7.78;4.38;;;;;;;;;;5035074;28;20021;-40
2022/10/11 04:34:26;;;;;;;7.82;5.40;;;;;;;;;;5034824;28;20045;-40
2022/10/11 04:36:52;;;;;;;7.70;4.95;;;;;;;;;;5034727;28;20053;-40
2022/10/11 04:39:17;;;;;;;9.75;4.47;;;;;;;;;;5034622;28;20071;-40
2022/10/11 04:41:42;;;;;;;7.78;5.03;;;;;;;;;;5034945;28;20040;-41
2022/10/11 04:44:08;;;;;;;7.38;4.90;;;;;;;;;;5034493;28;20065;-40
2022/10/11 04:46:33;;;;;;;9.15;6.10;;;;;;;;;;5034581;28;20097;-40
2022/10/11 04:48:59;;;;;;;8.88;5.22;;;;;;;;;;5034724;28;20040;-40
2022/10/11 04:51:25;;;;;;;12.07;4.88;;;;;;;;;;5034842;28;20452;-40
2022/10/11 04:53:50;;;;;;;7.75;4.65;;;;;;;;;;5034631;28;20411;-41
2022/10/11 04:56:17;;;;;;;8.70;4.85;;;;;;;;;;5034618;28;20028;-40
2022/10/11 04:58:43;;;;;;;8.90;4.82;;;;;;;;;;5034345;28;20040;-40
2022/10/11 05:01:09;;;;;;;11.38;6.00;;;;;;;;;;5034219;28;20075;-40
2022/10/11 05:03:34;;;;;;;5.88;3.70;;;;;;;;;;5034336;28;20029;-40
2022/10/11 05:06:00;;;;;;;8.50;4.65;;;;;;;;;;5034188;28;20013;-40
2022/10/11 05:08:26;;;;;;;10.05;5.63;;;;;;;;;;5034258;28;20029;-40
2022/10/11 05:10:55;;;;;;;9.25;5.47;;;;;;;;;;5034222;28;20423;-42
2022/10/11 05:13:21;;;;;;;9.77;5.28;;;;;;;;;;5032717;28;20036;-40
2022/10/11 05:15:47;;;;;;;10.57;5.28;;;;;;;;;;5016399;28;20025;-40
2022/10/11 05:18:13;;;;;;;10.45;5.80;;;;;;;;;;5033971;28;20121;-40
2022/10/11 05:20:38;;;;;;;7.18;4.10;;;;;;;;;;5016192;28;20100;-40
2022/10/11 05:23:04;;;;;;;8.23;4.20;;;;;;;;;;5016199;28;20540;-40
2022/10/11 05:25:29;;;;;;;8.48;5.28;;;;;;;;;;5034143;28;20079;-40
2022/10/11 05:27:55;;;;;;;8.60;5.72;;;;;;;;;;5032645;28;20104;-40
2022/10/11 05:30:20;;;;;;;7.43;4.70;;;;;;;;;;5016238;28;20056;-40
2022/10/11 05:32:46;;;;;;;9.38;4.28;;;;;;;;;;5034029;28;20045;-40
2022/10/11 05:35:11;;;;;;;7.20;4.22;;;;;;;;;;5033616;28;20018;-40
2022/10/11 05:37:36;;;;;;;9.82;4.85;;;;;;;;;;5033584;28;20049;-40
2022/10/11 05:40:02;;;;;;;9.98;4.00;;;;;;;;;;5033801;28;20076;-40
2022/10/11 05:42:28;;;;;;;7.60;4.70;;;;;;;;;;5032743;28;20056;-40
2022/10/11 05:44:53;;;;;;;10.68;5.75;;;;;;;;;;5033579;28;20499;-40
2022/10/11 05:47:18;;;;;;;14.60;4.47;;;;;;;;;;5033501;28;20492;-40
2022/10/11 05:49:44;;;;;;;9.15;5.65;;;;;;;;;;5033328;28;20108;-43
2022/10/11 05:52:09;;;;;;;12.57;6.90;;;;;;;;;;5033666;28;20069;-40
2022/10/11 05:54:35;;;;;;;10.05;5.15;;;;;;;;;;5033659;28;20108;-40
2022/10/11 05:57:00;;;;;;;8.85;6.00;;;;;;;;;;5033126;28;20041;-40
2022/10/11 05:59:26;;;;;;;12.95;5.35;;;;;;;;;;5033565;28;20104;-40
2022/10/11 06:01:51;;;;;;;10.35;5.25;;;;;;;;;;5033537;28;20040;-39
2022/10/11 06:04:17;;;;;;;8.88;4.68;;;;;;;;;;5033303;28;20448;-40
2022/10/11 06:06:43;;;;;;;11.23;4.97;;;;;;;;;;5032099;28;20064;-41
2022/10/11 06:09:08;;;;;;;9.77;5.95;;;;;;;;;;5032994;28;20040;-41
2022/10/11 06:11:34;;;;;;;8.85;4.85;;;;;;;;;;5033288;28;20037;-39
2022/10/11 06:13:59;;;;;;;7.80;4.35;;;;;;;;;;5032917;28;20079;-39
2022/10/11 06:16:25;;;;;;;6.30;4.43;;;;;;;;;;5015265;28;20492;-40
2022/10/11 06:18:54;;;;;;;7.38;4.40;;;;;;;;;;5032898;28;20049;-39
2022/10/11 06:21:20;;;;;;;10.30;4.43;;;;;;;;;;5032871;28;20027;-39
2022/10/11 06:23:49;;;;;;;8.77;5.63;;;;;;;;;;5032828;28;20051;-41
2022/10/11 06:26:15;;;;;;;12.52;5.32;;;;;;;;;;5032941;28;20018;-39
2022/10/11 06:28:41;;;;;;;7.78;4.75;;;;;;;;;;5032687;28;20045;-40
2022/10/11 06:31:06;;;;;;;6.70;4.05;;;;;;;;;;5032895;28;20119;-39
2022/10/11 06:33:32;;;;;;;6.78;5.20;;;;;;;;;;5032703;28;20021;-39
2022/10/11 06:35:58;;;;;;;8.70;5.03;;;;;;;;;;5032450;28;20088;-40
2022/10/11 06:38:24;;;;;;;7.50;4.90;;;;;;;;;;5032294;28;20049;-39
2022/10/11 06:40:49;;;;;;;8.20;4.80;;;;;;;;;;5032533;28;20030;-39
2022/10/11 06:43:15;;;;;;;10.68;4.13;;;;;;;;;;5032450;28;20446;-39
2022/10/11 06:45:40;;;;;;;12.18;5.03;;;;;;;;;;5032698;28;20022;-39
2022/10/11 06:48:05;;;;;;;6.82;3.83;;;;;;;;;;5032215;28;20064;-40
2022/10/11 06:50:31;;;;;;;12.02;5.03;;;;;;;;;;5014466;28;20033;-40
2022/10/11 06:52:57;;;;;;;12.85;4.18;;;;;;;;;;5032210;28;20049;-40
2022/10/11 06:55:23;;;;;;;9.55;4.50;;;;;;;;;;5014572;28;20530;-40
2022/10/11 06:57:48;;;;;;;9.05;5.18;;;;;;;;;;5032099;28;20387;-39
2022/10/11 07:00:14;;;;;;;9.10;4.80;;;;;;;;;;5032343;28;20403;-40
2022/10/11 07:02:40;;;;;;;5.68;3.72;;;;;;;;;;5032197;28;20456;-39
2022/10/11 07:05:05;;;;;;;6.78;4.82;;;;;;;;;;5014454;28;20083;-40
2022/10/11 07:07:31;;;;;;;8.85;4.57;;;;;;;;;;5032164;28;20033;-40
2022/10/11 07:09:56;;;;;;;8.60;4.60;;;;;;;;;;5032010;28;20422;-40
2022/10/11 07:12:22;;;;;;;8.13;3.58;;;;;;;;;;5032210;28;20029;-40
2022/10/11 07:14:47;;;;;;;9.88;5.45;;;;;;;;;;5032098;28;20490;-41
2022/10/11 07:17:12;;;;;;;8.93;4.57;;;;;;;;;;5032010;28;20487;-40
2022/10/11 07:19:38;;;;;;;9.93;4.32;;;;;;;;;;5031713;28;20026;-40
2022/10/11 07:22:03;;;;;;;6.88;3.60;;;;;;;;;;5031686;28;20037;-40
2022/10/11 07:24:28;;;;;;;6.45;4.43;;;;;;;;;;5030576;28;20033;-41
2022/10/11 07:26:54;;;;;;;10.70;5.18;;;;;;;;;;5031758;28;20376;-40
2022/10/11 07:29:19;;;;;;;7.63;4.75;;;;;;;;;;5031734;28;20037;-40
2022/10/11 07:31:45;;;;;;;6.65;4.68;;;;;;;;;;5031905;28;20029;-40
2022/10/11 07:34:10;;;;;;;6.43;4.07;;;;;;;;;;5031888;28;20064;-40
2022/10/11 07:36:36;;;;;;;9.43;4.30;;;;;;;;;;5031542;28;20046;-41
2022/10/11 07:39:04;;;;;;;10.48;5.22;;;;;;;;;;5031690;28;20419;-41
2022/10/11 07:41:29;;;;;;;9.20;4.72;;;;;;;;;;5031490;28;20009;-40
2022/10/11 07:43:54;;;;;;;7.93;4.53;;;;;;;;;;5031391;28;20033;-40
2022/10/11 07:46:20;;;;;;;9.93;5.32;;;;;;;;;;5031320;28;20037;-40
2022/10/11 07:48:45;;;;;;;10.10;4.63;;;;;;;;;;5031349;28;20033;-40
2022/10/11 07:51:29;;;;;;;6.68;4.43;;;;;;;;;;5031156;28;20025;-40
2022/10/11 07:53:55;;;;;;;6.25;4.00;;;;;;;;;;5031354;28;20052;-40
2022/10/11 07:56:25;;;;;;;8.25;4.50;;;;;;;;;;5031117;28;20025;-40
2022/10/11 07:58:58;;;;;;;7.90;4.43;;;;;;;;;;5031178;28;20029;-40
2022/10/11 08:01:24;;;;;;;6.35;4.18;;;;;;;;;;5031581;28;20139;-40
2022/10/11 08:03:49;;;;;;;7.72;4.47;;;;;;;;;;5031420;28;20472;-40
2022/10/11 08:06:16;;;;;;;7.28;4.63;;;;;;;;;;5037717;28;20169;-39
2022/10/11 08:08:41;;;;;;;8.00;4.35;;;;;;;;;;5037658;28;20025;-41
2022/10/11 08:11:07;;;;;;;8.60;4.63;;;;;;;;;;5037684;28;20091;-40
2022/10/11 08:13:32;;;;;;;10.73;4.25;;;;;;;;;;5038046;28;20121;-40
2022/10/11 08:15:58;;;;;;;4.93;3.35;;;;;;;;;;5037621;28;20104;-40
2022/10/11 08:18:23;;;;;;;4.55;3.55;;;;;;;;;;5037594;28;20068;-41
2022/10/11 08:20:49;;;;;;;6.93;4.60;;;;;;;;;;5037752;28;20021;-40
2022/10/11 08:23:15;;;;;;;7.53;3.75;;;;;;;;;;5037900;28;20029;-40
2022/10/11 08:25:41;;;;;;;11.10;4.43;;;;;;;;;;5037769;28;20033;-40
2022/10/11 08:28:06;;;;;;;7.50;5.07;;;;;;;;;;5037648;28;20487;-40
2022/10/11 08:30:32;;;;;;;6.55;4.25;;;;;;;;;;5037641;28;20033;-40
2022/10/11 08:32:58;;;;;;;7.72;4.13;;;;;;;;;;5037483;28;20025;-40
2022/10/11 08:35:23;;;;;;;7.22;4.35;;;;;;;;;;5037925;28;20087;-40
2022/10/11 08:37:48;;;;;;;6.97;4.47;;;;;;;;;;5037329;28;20060;-41
2022/10/11 08:40:16;;;;;;;7.30;4.32;;;;;;;;;;5037380;28;20036;-40
2022/10/11 08:42:52;;;;;;;13.20;4.60;;;;;;;;;;5037593;28;20037;-42
2022/10/11 08:45:28;;;;;;;7.88;4.45;;;;;;;;;;5037703;28;20031;-40
2022/10/11 08:48:00;;;;;;;7.40;4.35;;;;;;;;;;5019745;28;20116;-40
2022/10/11 08:50:26;;;;;;;7.32;3.92;;;;;;;;;;5037426;28;20033;-40
2022/10/11 08:52:56;;;;;;;11.00;5.43;;;;;;;;;;5037419;28;20025;-40
2022/10/11 08:55:36;;;;;;;8.05;5.03;;;;;;;;;;5037552;28;20024;-40
2022/10/11 08:58:01;;;;;;;11.32;4.18;;;;;;;;;;5037494;28;20369;-40
2022/10/11 09:00:29;;;;;;;6.30;3.97;;;;;;;;;;5037284;28;20022;-40
2022/10/11 09:02:57;;;;;;;8.50;4.22;;;;;;;;;;5037249;28;20033;-40
2022/10/11 09:05:24;;;;;;;7.88;4.25;;;;;;;;;;5037181;28;20468;-40
2022/10/11 09:07:56;;;;;;;6.70;4.28;;;;;;;;;;5037678;28;20036;-40
2022/10/11 09:10:22;;;;;;;8.75;4.28;;;;;;;;;;5037159;28;20042;-40
2022/10/11 09:12:47;;;;;;;6.18;3.78;;;;;;;;;;5037283;28;20021;-40
2022/10/11 09:15:39;;;;;;;11.13;4.85;;;;;;;;;;5037166;28;20029;-40
2022/10/11 09:18:13;;;;;;;8.13;4.43;;;;;;;;;;4996259;28;20049;-40
2022/10/11 09:20:44;;;;;;;6.65;4.00;;;;;;;;;;5034042;28;20071;-40
2022/10/11 09:23:24;;;;;;;6.53;3.63;;;;;;;;;;5034200;28;20138;-40
2022/10/11 09:25:53;;;;;;;8.00;4.53;;;;;;;;;;5033920;28;20551;-40
2022/10/11 09:28:19;;;;;;;8.55;4.40;;;;;;;;;;5034001;28;20070;-40
2022/10/11 09:30:49;;;;;;;7.57;4.50;;;;;;;;;;5033751;28;20037;-40
2022/10/11 09:33:14;;;;;;;5.35;3.28;;;;;;;;;;5033821;28;20163;-40
2022/10/11 09:35:43;;;;;;;5.43;3.88;;;;;;;;;;5033748;28;20068;-40
2022/10/11 09:38:08;;;;;;;8.93;4.28;;;;;;;;;;5033372;28;20061;-40
2022/10/11 09:40:38;;;;;;;5.90;4.05;;;;;;;;;;5033954;28;20053;-40
2022/10/11 09:43:04;;;;;;;8.63;4.78;;;;;;;;;;5033486;28;20032;-40
2022/10/11 09:45:30;;;;;;;8.05;4.38;;;;;;;;;;5033818;28;20017;-40
2022/10/11 09:47:58;;;;;;;7.07;3.88;;;;;;;;;;5033493;28;20037;-40
2022/10/11 09:50:29;;;;;;;9.82;3.95;;;;;;;;;;5033470;28;20024;-41
2022/10/11 09:52:56;;;;;;;6.75;5.00;;;;;;;;;;5033445;28;20038;-40
2022/10/11 09:55:29;;;;;;;7.60;4.25;;;;;;;;;;5033280;28;20021;-41
2022/10/11 09:57:54;;;;;;;9.63;4.57;;;;;;;;;;5033181;28;20120;-41
2022/10/11 10:00:21;;;;;;;7.10;3.90;;;;;;;;;;5033284;28;20101;-40
2022/10/11 10:02:48;;;;;;;8.07;4.05;;;;;;;;;;5033311;28;20099;-40
2022/10/11 10:05:16;;;;;;;5.43;3.35;;;;;;;;;;5033021;28;20018;-41
2022/10/11 10:08:00;;;;;;;6.93;3.97;;;;;;;;;;5033135;28;20087;-40
2022/10/11 10:10:25;;;;;;;8.10;3.30;;;;;;;;;;5033200;28;20030;-41
2022/10/11 10:12:55;;;;;;;6.60;3.60;;;;;;;;;;5033071;28;20414;-40
2022/10/11 10:15:21;;;;;;;7.50;4.85;;;;;;;;;;5032968;28;20032;-40
2022/10/11 10:17:50;;;;;;;9.15;4.10;;;;;;;;;;5031611;28;20116;-40
2022/10/11 10:20:20;;;;;;;7.05;4.28;;;;;;;;;;5032816;28;20099;-40
2022/10/11 10:22:45;;;;;;;5.28;3.60;;;;;;;;;;5032910;28;20484;-40
2022/10/11 10:25:18;;;;;;;5.53;3.53;;;;;;;;;;5015162;28;20038;-40
2022/10/11 10:27:54;;;;;;;7.78;3.67;;;;;;;;;;5032170;28;20022;-40
2022/10/11 10:30:20;;;;;;;5.88;3.53;;;;;;;;;;5032752;28;20124;-40
2022/10/11 10:32:54;;;;;;;7.60;3.67;;;;;;;;;;5032890;28;20121;-39
2022/10/11 10:35:41;;;;;;;6.43;3.42;;;;;;;;;;5032625;28;20029;-40
2022/10/11 10:38:25;;;;;;;7.60;4.25;;;;;;;;;;5032304;28;20140;-40
2022/10/11 10:40:52;;;;;;;8.43;3.40;;;;;;;;;;5032378;28;20395;-40
2022/10/11 10:43:19;;;;;;;7.97;3.17;;;;;;;;;;5032740;28;20022;-40
2022/10/11 10:46:03;;;;;;;5.60;3.97;;;;;;;;;;5032733;28;20029;-40
2022/10/11 10:48:34;;;;;;;4.43;2.90;;;;;;;;;;5032663;28;20033;-41
2022/10/11 10:51:03;;;;;;;6.13;3.25;;;;;;;;;;5032322;28;20071;-40
2022/10/11 10:53:43;;;;;;;7.70;3.40;;;;;;;;;;5032284;28;20021;-40
2022/10/11 10:56:08;;;;;;;9.50;3.65;;;;;;;;;;5032500;28;20060;-40
2022/10/11 10:58:59;;;;;;;5.68;4.22;;;;;;;;;;5032220;28;20026;-40
2022/10/11 11:01:26;;;;;;;7.18;3.03;;;;;;;;;;5032423;28;20369;-41
2022/10/11 11:04:04;;;;;;;6.53;3.15;;;;;;;;;;5032138;28;20235;-40
2022/10/11 11:06:43;;;;;;;5.93;3.17;;;;;;;;;;5032076;28;20041;-40
2022/10/11 11:09:15;;;;;;;5.18;3.10;;;;;;;;;;5032193;28;20036;-40
2022/10/11 11:11:51;;;;;;;5.53;3.17;;;;;;;;;;5030698;28;20029;-40
2022/10/11 11:14:46;;;;;;;4.22;3.03;;;;;;;;;;5031883;28;20033;-40
2022/10/11 11:17:12;;;;;;;10.30;3.05;;;;;;;;;;5010303;28;20080;-41
2022/10/11 11:19:40;;;;;;;4.75;2.60;;;;;;;;;;5031896;28;20014;-41
2022/10/11 11:22:12;;;;;;;9.00;3.15;;;;;;;;;;5031666;28;20048;-42
2022/10/11 11:24:50;;;;;;;3.42;2.70;;;;;;;;;;5031757;28;20075;-40
2022/10/11 11:27:48;;;;;;;7.30;3.55;;;;;;;;;;5031897;28;20041;-40
2022/10/11 11:30:21;;;;;;;4.65;2.45;;;;;;;;;;4977161;28;20111;-40
2022/10/11 11:33:05;;;;;;;4.50;2.92;;;;;;;;;;5031911;28;20040;-41
2022/10/11 11:35:35;;;;;;;5.05;3.13;;;;;;;;;;5031598;28;20080;-40
2022/10/11 11:38:03;;;;;;;7.43;3.50;;;;;;;;;;5031186;28;20050;-41
2022/10/11 11:40:34;;;;;;;6.30;2.90;;;;;;;;;;5030728;28;20021;-40
2022/10/11 11:43:07;;;;;;;5.45;3.35;;;;;;;;;;5031699;28;20033;-40
2022/10/11 11:45:54;;;;;;;3.95;2.67;;;;;;;;;;5013713;28;20025;-40
2022/10/11 11:48:23;;;;;;;9.30;2.95;;;;;;;;;;5031287;28;20095;-42
2022/10/11 11:50:55;;;;;;;4.40;2.33;;;;;;;;;;5031391;28;20025;-40
2022/10/11 11:53:25;;;;;;;4.50;2.75;;;;;;;;;;5031345;28;20029;-40
2022/10/11 11:55:53;;;;;;;4.07;2.58;;;;;;;;;;5031274;28;20091;-42
2022/10/11 11:58:37;;;;;;;3.47;2.55;;;;;;;;;;5031265;28;20037;-40
2022/10/11 12:01:03;;;;;;;4.78;2.90;;;;;;;;;;5031448;28;20116;-41
2022/10/11 12:03:39;;;;;;;4.40;2.65;;;;;;;;;;5031259;28;20492;-40
2022/10/11 12:06:28;;;;;;;5.45;2.92;;;;;;;;;;5029820;28;20192;-40
2022/10/11 12:09:00;;;;;;;3.78;2.88;;;;;;;;;;5016730;28;20091;-40
2022/10/11 12:11:49;;;;;;;4.50;2.72;;;;;;;;;;5031322;28;20384;-41
2022/10/11 12:14:16;;;;;;;4.47;3.20;;;;;;;;;;5017969;28;20045;-40
2022/10/11 12:17:00;;;;;;;4.97;2.90;;;;;;;;;;5031084;28;20030;-40
2022/10/11 12:19:26;;;;;;;3.95;2.72;;;;;;;;;;5031403;28;20040;-40
2022/10/11 12:22:11;;;;;;;3.53;2.72;;;;;;;;;;5031019;28;20368;-40
2022/10/11 12:24:52;;;;;;;3.95;2.05;;;;;;;;;;5030873;28;20094;-41
2022/10/11 12:27:36;;;;;;;6.38;2.40;;;;;;;;;;5030887;28;20022;-41
2022/10/11 12:30:02;;;;;;;4.45;2.92;;;;;;;;;;5030912;28;20488;-41
2022/10/11 12:32:34;;;;;;;4.35;3.63;;;;;;;;;;5030916;28;20464;-40
2022/10/11 12:35:18;;;;;;;2.88;2.13;;;;;;;;;;5031272;28;20026;-40
2022/10/11 12:37:48;;;;;;;8.07;2.88;;;;;;;;;;5030684;28;20523;-40
2022/10/11 12:40:40;;;;;;;4.10;2.90;;;;;;;;;;5029750;28;20596;-40
2022/10/11 12:43:15;;;;;;;3.95;2.40;;;;;;;;;;5020167;28;20404;-40
2022/10/11 12:45:46;;;;;;;5.22;2.85;;;;;;;;;;5031157;28;20030;-40
2022/10/11 12:48:30;;;;;;;6.05;3.05;;;;;;;;;;5030984;28;20036;-40
2022/10/11 12:51:15;;;;;;;4.57;2.53;;;;;;;;;;5032128;28;20025;-42
2022/10/11 12:54:02;;;;;;;3.83;2.55;;;;;;;;;;5034892;28;20048;-41
2022/10/11 12:56:36;;;;;;;5.80;3.65;;;;;;;;;;5034403;28;20087;-40
2022/10/11 12:59:05;;;;;;;5.63;3.20;;;;;;;;;;5034418;28;20033;-40
2022/10/11 13:01:35;;;;;;;6.63;2.50;;;;;;;;;;5034363;28;20068;-40
2022/10/11 13:04:08;;;;;;;3.10;2.38;;;;;;;;;;5034348;28;20071;-40
2022/10/11 13:06:43;;;;;;;6.00;3.25;;;;;;;;;;5016537;28;20120;-40
2022/10/11 13:09:08;;;;;;;3.25;2.67;;;;;;;;;;5034618;28;20353;-41
2022/10/11 13:11:36;;;;;;;5.30;2.78;;;;;;;;;;5034485;28;20113;-40
2022/10/11 13:14:21;;;;;;;4.00;2.55;;;;;;;;;;5034420;28;20084;-40
2022/10/11 13:16:47;;;;;;;4.95;1.85;;;;;;;;;;5034371;28;20053;-40
2022/10/11 13:19:13;;;;;;;4.75;2.78;;;;;;;;;;5034270;28;20013;-41
2022/10/11 13:21:39;;;;;;;3.25;2.38;;;;;;;;;;5034355;28;20026;-40
2022/10/11 13:24:17;;;;;;;3.88;2.67;;;;;;;;;;5033836;28;20021;-40
2022/10/11 13:26:44;;;;;;;7.07;2.58;;;;;;;;;;5033976;28;20500;-40
2022/10/11 13:29:17;;;;;;;4.10;2.55;;;;;;;;;;5033784;28;20029;-41
2022/10/11 13:31:42;;;;;;;;;;;;;;;;;;5016353;28;20128;-40
2022/10/11 13:34:09;;;;;;;8.50;2.20;;;;;;;;;;5033820;28;20011;-40
2022/10/11 13:36:35;;;;;;;6.65;2.70;;;;;;;;;;5015863;28;20467;-40
2022/10/11 13:39:00;;;;;;;3.58;1.75;;;;;;;;;;5033663;28;20069;-41
2022/10/11 13:41:27;;;;;;;4.80;2.53;;;;;;;;;;5033711;28;20096;-40
2022/10/11 13:43:53;;;;;;;3.35;2.22;;;;;;;;;;5015914;28;20022;-40
2022/10/11 13:46:21;;;;;;;8.60;3.08;;;;;;;;;;5033543;28;20526;-40
2022/10/11 13:48:55;;;;;;;3.22;2.53;;;;;;;;;;5033827;28;20105;-40
2022/10/11 13:51:34;;;;;;;5.70;3.85;;;;;;;;;;5033438;28;20029;-40
2022/10/11 13:54:01;;;;;;;2.90;2.50;;;;;;;;;;5033765;28;20448;-40
2022/10/11 13:56:28;;;;;;;8.32;2.60;;;;;;;;;;5033528;28;20025;-41
2022/10/11 13:58:54;;;;;;;3.63;2.20;;;;;;;;;;5033328;28;20473;-40
2022/10/11 14:01:21;;;;;;;2.53;2.10;;;;;;;;;;5033503;28;20109;-40
2022/10/11 14:04:04;;;;;;;5.18;2.83;;;;;;;;;;5032668;28;20037;-40
2022/10/11 14:06:48;;;;;;;3.80;2.30;;;;;;;;;;5033192;28;20026;-40
2022/10/11 14:09:34;;;;;;;4.13;3.03;;;;;;;;;;5033377;28;20048;-41
2022/10/11 14:12:39;;;;;;;7.57;2.78;;;;;;;;;;5032354;28;20029;-41
2022/10/11 14:15:06;;;;;;;3.42;2.25;;;;;;;;;;4933399;29;20048;-40
2022/10/11 14:17:35;;;;;;;8.50;2.83;;;;;;;;;;4933371;29;20035;-39
2022/10/11 14:20:18;;;;;;;4.22;2.53;;;;;;;;;;4983390;28;20029;-40
2022/10/11 14:22:44;;;;;;;2.75;1.98;;;;;;;;;;5032974;28;20523;-40
2022/10/11 14:25:10;;;;;;;4.55;2.28;;;;;;;;;;5032751;28;20151;-40
2022/10/11 14:27:36;;;;;;;3.60;2.22;;;;;;;;;;5032944;28;20052;-41
2022/10/11 14:30:04;;;;;;;2.88;1.98;;;;;;;;;;5015023;28;20464;-40
2022/10/11 14:32:31;;;;;;;3.20;2.30;;;;;;;;;;5033046;28;20116;-41
2022/10/11 14:34:57;;;;;;;5.20;2.97;;;;;;;;;;5032621;28;20079;-40
2022/10/11 14:37:23;;;;;;;3.45;2.40;;;;;;;;;;5032440;28;20507;-42
2022/10/11 14:39:49;;;;;;;6.25;4.85;;;;;;;;;;5032620;28;20475;-41
2022/10/11 14:42:15;;;;;;;10.32;3.38;;;;;;;;;;5032739;28;20466;-40
2022/10/11 14:44:40;;;;;;;3.45;2.17;;;;;;;;;;5014908;28;20021;-40
2022/10/11 14:47:06;;;;;;;6.78;2.90;;;;;;;;;;5032635;28;20052;-40
2022/10/11 14:49:36;;;;;;;5.72;1.98;;;;;;;;;;5032440;28;20024;-41
2022/10/11 14:52:04;;;;;;;6.53;2.05;;;;;;;;;;5032285;28;20033;-41